Time;durP1;ratioP1;P1;durP2;ratioP2;P2;SDS_P1;SDS_P2;PMS_P1;PMS_P2;Temp;Humidity;BMP_temperature;BMP_pressure;BME280_temperature;BME280_humidity;BME280_pressure;Samples;Min_cycle;Max_cycle;Signal;HPM_P1;HPM_P2
2022/10/29 00:02:03;;;;;;;24.70;10.07;;;;;12.00;97115.00;;;;10182965;23;20192;-78
2022/10/29 00:06:39;;;;;;;28.05;10.68;;;;;11.90;97116.00;;;;10182937;23;20629;-78
2022/10/29 00:10:42;;;;;;;24.60;10.35;;;;;11.90;97108.00;;;;10139544;23;20191;-77
2022/10/29 00:14:45;;;;;;;24.05;10.38;;;;;11.90;97115.00;;;;10133550;23;20205;-78
2022/10/29 00:19:22;;;;;;;28.75;10.60;;;;;11.80;97114.00;;;;10177898;23;20209;-76
2022/10/29 00:23:27;;;;;;;24.55;10.23;;;;;11.80;97097.00;;;;10137996;23;20194;-77
2022/10/29 00:27:30;;;;;;;28.50;11.05;;;;;11.80;97097.00;;;;10180755;23;20627;-78
2022/10/29 00:32:08;;;;;;;30.88;11.57;;;;;11.80;97106.00;;;;10182436;23;20210;-76
2022/10/29 00:36:14;;;;;;;33.08;10.88;;;;;11.80;97108.00;;;;10134113;23;20201;-78
2022/10/29 00:40:19;;;;;;;28.02;11.43;;;;;11.80;97111.00;;;;10134450;23;20246;-77
2022/10/29 00:44:56;;;;;;;21.75;9.90;;;;;11.80;97114.00;;;;10178573;23;20191;-78
2022/10/29 00:49:00;;;;;;;30.95;11.85;;;;;11.90;97120.00;;;;10182521;23;20194;-78
2022/10/29 00:53:04;;;;;;;31.65;11.38;;;;;11.90;97118.00;;;;10182927;23;20213;-77
2022/10/29 00:57:11;;;;;;;26.33;10.68;;;;;11.80;97120.00;;;;10182273;23;20202;-76
2022/10/29 01:01:14;;;;;;;25.33;10.48;;;;;11.80;97120.00;;;;10142320;23;20191;-76
2022/10/29 01:05:21;;;;;;;25.60;9.85;;;;;11.70;97120.00;;;;10136193;23;20201;-76
2022/10/29 01:09:24;;;;;;;29.15;12.00;;;;;11.80;97123.00;;;;10181247;23;20202;-78
2022/10/29 01:13:42;;;;;;;23.85;11.32;;;;;11.80;97136.00;;;;10185104;23;20201;-78
2022/10/29 01:18:00;;;;;;;27.35;10.93;;;;;11.80;97140.00;;;;10185603;23;20226;-76
2022/10/29 01:22:08;;;;;;;33.42;11.65;;;;;11.90;97132.00;;;;10184939;23;20213;-78
2022/10/29 01:26:40;;;;;;;33.20;11.30;;;;;11.90;97129.00;;;;10185602;23;20205;-78
2022/10/29 01:31:27;;;;;;;28.67;10.98;;;;;11.80;97125.00;;;;10184719;23;20197;-78
2022/10/29 01:35:45;;;;;;;31.83;12.23;;;;;11.90;97125.00;;;;10143587;23;20204;-79
2022/10/29 01:39:56;;;;;;;33.08;10.98;;;;;11.90;97115.00;;;;10142087;23;20207;-77
2022/10/29 01:44:08;;;;;;;26.35;11.13;;;;;11.90;97114.00;;;;10181291;23;20647;-76
2022/10/29 01:48:14;;;;;;;26.52;11.18;;;;;11.90;97103.00;;;;10185254;23;20202;-76
2022/10/29 01:52:45;;;;;;;25.65;10.60;;;;;11.80;97106.00;;;;10185562;23;20193;-76
2022/10/29 01:56:55;;;;;;;31.40;11.88;;;;;11.70;97109.00;;;;10184778;23;20205;-76
2022/10/29 02:01:13;;;;;;;33.33;12.77;;;;;11.80;97113.00;;;;10185663;23;20205;-76
2022/10/29 02:05:36;;;;;;;31.40;11.95;;;;;11.80;97111.00;;;;10186045;23;20329;-75
2022/10/29 02:09:44;;;;;;;30.20;11.68;;;;;11.90;97108.00;;;;10184421;23;20268;-75
2022/10/29 02:13:53;;;;;;;30.08;11.18;;;;;11.90;97100.00;;;;10185891;23;20209;-75
2022/10/29 02:17:59;;;;;;;27.05;10.88;;;;;11.80;97081.00;;;;10185106;23;20205;-76
2022/10/29 02:22:33;;;;;;;30.08;11.63;;;;;11.70;97083.00;;;;10185084;23;20209;-77
2022/10/29 02:26:36;;;;;;;26.48;11.10;;;;;11.70;97074.00;;;;10185851;23;20191;-76
2022/10/29 02:30:41;;;;;;;28.83;11.82;;;;;11.60;97069.00;;;;10179303;23;20228;-77
2022/10/29 02:35:14;;;;;;;30.85;12.15;;;;;11.60;97066.00;;;;10185668;23;20210;-76
2022/10/29 02:39:17;;;;;;;36.70;12.45;;;;;11.60;97064.00;;;;10185493;23;20205;-76
2022/10/29 02:43:20;;;;;;;32.17;13.45;;;;;11.70;97061.00;;;;10184440;23;20193;-75
2022/10/29 02:47:25;;;;;;;34.28;13.25;;;;;11.90;97072.00;;;;10184674;23;20554;-76
2022/10/29 02:51:59;;;;;;;29.10;12.52;;;;;11.90;97069.00;;;;10184674;23;20197;-76
2022/10/29 02:56:02;;;;;;;29.35;11.73;;;;;11.90;97074.00;;;;10183419;23;20248;-75
2022/10/29 03:00:06;;;;;;;30.88;13.55;;;;;11.80;97061.00;;;;10184636;23;20201;-75
2022/10/29 03:04:43;;;;;;;29.67;12.43;;;;;11.80;97057.00;;;;10183767;23;20206;-76
2022/10/29 03:08:46;;;;;;;30.25;12.18;;;;;11.70;97057.00;;;;10184291;23;20190;-77
2022/10/29 03:12:58;;;;;;;34.15;12.73;;;;;11.60;97051.00;;;;10183689;23;20212;-76
2022/10/29 03:17:01;;;;;;;29.08;12.07;;;;;11.60;97051.00;;;;10184600;23;20259;-76
2022/10/29 03:21:40;;;;;;;28.48;12.43;;;;;11.50;97058.00;;;;10184404;23;20197;-76
2022/10/29 03:25:43;;;;;;;30.88;12.05;;;;;11.50;97063.00;;;;10183941;23;20471;-76
2022/10/29 03:30:19;;;;;;;103.47;14.88;;;;;11.30;97060.00;;;;10169536;23;20513;-76
2022/10/29 03:34:49;;;;;;;30.17;11.32;;;;;11.20;97074.00;;;;10182666;23;20194;-75
2022/10/29 03:39:28;;;;;;;29.33;11.23;;;;;11.10;97078.00;;;;10183921;23;20197;-74
2022/10/29 03:43:31;;;;;;;31.65;12.82;;;;;11.00;97063.00;;;;10184671;23;20196;-75
2022/10/29 03:48:08;;;;;;;36.10;12.80;;;;;11.00;97066.00;;;;10183714;23;20504;-76
2022/10/29 03:52:44;;;;;;;34.58;11.82;;;;;11.00;97058.00;;;;10184366;23;20212;-74
2022/10/29 03:56:49;;;;;;;25.13;11.35;;;;;11.00;97058.00;;;;10183391;23;20273;-76
2022/10/29 04:01:23;;;;;;;33.88;13.15;;;;;10.90;97069.00;;;;10183319;23;20209;-75
2022/10/29 04:05:26;;;;;;;36.10;13.32;;;;;10.90;97064.00;;;;10183895;23;20217;-75
2022/10/29 04:09:29;;;;;;;34.40;13.43;;;;;10.90;97067.00;;;;10184091;23;20194;-75
2022/10/29 04:14:08;;;;;;;39.47;14.40;;;;;10.90;97071.00;;;;10183441;23;20208;-75
2022/10/29 04:18:42;;;;;;;45.70;15.00;;;;;10.90;97064.00;;;;10184110;23;20208;-75
2022/10/29 04:23:18;;;;;;;45.45;14.82;;;;;10.90;97052.00;;;;10184857;23;20192;-74
2022/10/29 04:27:41;;;;;;;44.67;14.57;;;;;11.00;97069.00;;;;10183465;23;20204;-75
2022/10/29 04:32:18;;;;;;;38.80;13.93;;;;;11.10;97070.00;;;;10183099;23;20224;-74
2022/10/29 04:36:52;;;;;;;45.10;15.90;;;;;11.20;97074.00;;;;10186358;23;20194;-74
2022/10/29 04:41:29;;;;;;;35.65;13.63;;;;;11.30;97084.00;;;;10186408;23;20208;-74
2022/10/29 04:46:06;;;;;;;31.20;13.57;;;;;11.20;97081.00;;;;10187337;23;20276;-74
2022/10/29 04:50:10;;;;;;;40.30;14.70;;;;;11.20;97078.00;;;;10187065;23;20205;-75
2022/10/29 04:54:44;;;;;;;39.58;14.95;;;;;11.10;97073.00;;;;10186208;23;20214;-75
2022/10/29 04:59:21;;;;;;;43.20;13.73;;;;;11.00;97082.00;;;;10187126;23;20470;-74
2022/10/29 05:03:58;;;;;;;41.25;14.60;;;;;10.80;97069.00;;;;10186595;23;20250;-74
2022/10/29 05:08:04;;;;;;;43.58;15.05;;;;;10.80;97074.00;;;;10186855;23;20205;-74
2022/10/29 05:12:38;;;;;;;46.17;15.82;;;;;10.70;97081.00;;;;10185821;23;20639;-75
2022/10/29 05:16:41;;;;;;;60.83;15.68;;;;;10.70;97080.00;;;;10186730;23;20204;-75
2022/10/29 05:21:18;;;;;;;39.90;14.05;;;;;10.60;97071.00;;;;10185455;23;20210;-75
2022/10/29 05:25:22;;;;;;;38.80;13.07;;;;;10.60;97073.00;;;;10186090;23;20189;-75
2022/10/29 05:29:56;;;;;;;51.60;15.68;;;;;10.50;97073.00;;;;10185851;23;20252;-74
2022/10/29 05:34:33;;;;;;;42.92;14.30;;;;;10.50;97080.00;;;;10185592;23;20214;-75
2022/10/29 05:39:10;;;;;;;51.00;15.15;;;;;10.50;97082.00;;;;10185467;23;20245;-76
2022/10/29 05:43:46;;;;;;;46.10;14.90;;;;;10.60;97085.00;;;;10183564;23;20217;-76
2022/10/29 05:48:25;;;;;;;57.72;16.33;;;;;10.70;97083.00;;;;10185323;23;20197;-76
2022/10/29 05:52:59;;;;;;;45.53;15.60;;;;;10.80;97088.00;;;;10184498;23;20205;-78
2022/10/29 05:57:33;;;;;;;45.63;15.23;;;;;11.00;97089.00;;;;10185525;23;20609;-81
2022/10/29 06:02:10;;;;;;;53.22;16.60;;;;;11.10;97102.00;;;;10185408;23;20232;-80
2022/10/29 06:06:49;;;;;;;45.22;16.30;;;;;11.30;97101.00;;;;10185764;23;20246;-80
2022/10/29 06:11:23;;;;;;;48.50;15.27;;;;;11.40;97109.00;;;;10184040;23;20225;-79
2022/10/29 06:20:58;;;;;;;34.58;10.75;;;;;11.40;97108.00;;;;10184702;23;20337;-80
2022/10/29 06:25:36;;;;;;;33.90;13.05;;;;;11.30;97105.00;;;;10185066;23;20228;-79
2022/10/29 06:29:57;;;;;;;33.25;13.40;;;;;11.30;97112.00;;;;10186704;23;20221;-79
2022/10/29 06:34:34;;;;;;;39.20;13.10;;;;;11.30;97111.00;;;;10185305;23;20190;-81
2022/10/29 06:38:37;;;;;;;36.60;13.48;;;;;11.50;97126.00;;;;10185363;23;20322;-79
2022/10/29 06:43:15;;;;;;;34.45;13.05;;;;;11.60;97129.00;;;;10170799;23;20194;-75
2022/10/29 06:47:49;;;;;;;31.65;13.40;;;;;11.70;97129.00;;;;10182787;23;20213;-79
2022/10/29 06:52:26;;;;;;;42.20;14.63;;;;;11.90;97123.00;;;;10184760;23;20217;-79
2022/10/29 06:56:29;;;;;;;37.85;13.02;;;;;12.10;97109.00;;;;10184896;23;20200;-78
2022/10/29 07:01:01;;;;;;;42.90;13.80;;;;;12.20;97110.00;;;;10185380;23;20210;-79
2022/10/29 07:05:05;;;;;;;36.08;14.23;;;;;12.40;97120.00;;;;10184715;23;20244;-79
2022/10/29 07:09:08;;;;;;;38.03;13.52;;;;;12.50;97124.00;;;;10185008;23;20197;-79
2022/10/29 07:13:42;;;;;;;32.60;12.35;;;;;12.60;97122.00;;;;10183121;23;20683;-79
2022/10/29 07:17:56;;;;;;;44.28;14.18;;;;;12.80;97122.00;;;;10184922;23;20202;-79
2022/10/29 07:22:21;;;;;;;47.17;14.70;;;;;13.00;97122.00;;;;10184680;23;20201;-78
2022/10/29 07:26:24;;;;;;;39.03;14.23;;;;;13.30;97115.00;;;;10185492;23;20201;-79
2022/10/29 07:31:01;;;;;;;36.10;14.38;;;;;13.40;97126.00;;;;10182439;23;20201;-79
2022/10/29 07:35:06;;;;;;;36.60;13.30;;;;;13.50;97117.00;;;;10183719;23;20259;-79
2022/10/29 07:39:09;;;;;;;41.97;14.38;;;;;13.60;97117.00;;;;10184171;23;20263;-79
2022/10/29 07:43:12;;;;;;;37.95;13.63;;;;;13.80;97131.00;;;;10184369;23;20202;-79
2022/10/29 07:47:15;;;;;;;32.92;13.13;;;;;13.90;97125.00;;;;10184282;23;20647;-79
2022/10/29 07:51:54;;;;;;;26.83;11.70;;;;;14.00;97138.00;;;;10183585;23;20200;-81
2022/10/29 07:56:41;;;;;;;27.33;12.15;;;;;14.10;97141.00;;;;10183018;23;20241;-81
2022/10/29 08:01:08;;;;;;;30.48;12.40;;;;;14.20;97139.00;;;;10184311;23;20217;-81
2022/10/29 08:05:11;;;;;;;32.08;12.85;;;;;14.40;97144.00;;;;10184296;23;20205;-80
2022/10/29 08:09:49;;;;;;;37.50;14.38;;;;;14.50;97135.00;;;;10183793;23;20612;-81
2022/10/29 08:13:52;;;;;;;35.97;14.55;;;;;14.70;97133.00;;;;10187861;23;20201;-80
2022/10/29 08:22:54;;;;;;;37.53;14.77;;;;;14.80;97130.00;;;;10187621;23;20190;-81
2022/10/29 08:27:30;;;;;;;35.50;14.15;;;;;14.90;97129.00;;;;10187606;23;20198;-80
2022/10/29 08:32:07;;;;;;;41.63;14.60;;;;;15.00;97126.00;;;;10187066;23;20422;-78
2022/10/29 08:36:10;;;;;;;32.83;13.75;;;;;15.20;97145.00;;;;10187690;23;20190;-78
2022/10/29 08:40:29;;;;;;;37.00;15.52;;;;;15.30;97140.00;;;;10187939;23;20264;-77
2022/10/29 08:45:13;;;;;;;33.65;13.32;;;;;15.60;97139.00;;;;10187362;23;20197;-77
2022/10/29 08:49:20;;;;;;;29.73;13.75;;;;;15.90;97148.00;;;;9989928;23;20226;-77
2022/10/29 08:53:27;;;;;;;26.95;12.57;;;;;16.00;97138.00;;;;10088988;23;20263;-77
2022/10/29 08:58:09;;;;;;;24.95;12.80;;;;;16.20;97147.00;;;;10188139;23;20204;-78
2022/10/29 09:02:39;;;;;;;30.50;12.75;;;;;16.50;97142.00;;;;10187120;23;20206;-78
2022/10/29 09:07:22;;;;;;;24.77;12.32;;;;;16.70;97150.00;;;;10183508;23;20194;-75
2022/10/29 09:11:43;;;;;;;25.48;12.20;;;;;16.80;97144.00;;;;10186684;23;20458;-75
2022/10/29 09:16:07;;;;;;;25.42;11.75;;;;;16.80;97150.00;;;;10185757;23;20202;-75
2022/10/29 09:20:39;;;;;;;27.20;12.60;;;;;16.70;97144.00;;;;10186658;23;20193;-75
2022/10/29 09:24:50;;;;;;;19.23;10.63;;;;;16.60;97142.00;;;;10186812;23;20190;-75
2022/10/29 09:29:32;;;;;;;20.50;11.65;;;;;16.60;97142.00;;;;10182341;23;20198;-75
2022/10/29 09:33:35;;;;;;;23.17;11.05;;;;;16.80;97146.00;;;;10141879;23;20217;-77
2022/10/29 09:37:45;;;;;;;21.13;11.88;;;;;17.10;97144.00;;;;10186766;23;20201;-76
2022/10/29 09:41:52;;;;;;;22.13;10.70;;;;;17.40;97146.00;;;;10186983;23;20497;-76
2022/10/29 09:46:00;;;;;;;19.67;10.50;;;;;17.60;97153.00;;;;10185964;23;20260;-76
2022/10/29 09:50:35;;;;;;;21.73;10.68;;;;;17.60;97142.00;;;;10187122;23;20204;-77
2022/10/29 09:55:06;;;;;;;20.13;9.90;;;;;17.50;97143.00;;;;10186311;23;20189;-77
2022/10/29 09:59:47;;;;;;;19.52;9.95;;;;;17.40;97141.00;;;;10186182;23;20198;-76
2022/10/29 10:03:55;;;;;;;18.63;10.38;;;;;17.40;97131.00;;;;10136409;23;20210;-76
2022/10/29 10:08:10;;;;;;;18.20;10.70;;;;;17.70;97128.00;;;;10184498;23;20222;-76
2022/10/29 10:12:14;;;;;;;21.85;10.07;;;;;17.90;97125.00;;;;10185872;23;20221;-76
2022/10/29 10:16:58;;;;;;;17.15;10.05;;;;;18.10;97128.00;;;;10186153;23;20282;-76
2022/10/29 10:21:27;;;;;;;17.17;8.90;;;;;18.50;97121.00;;;;10183290;23;20198;-76
2022/10/29 10:25:36;;;;;;;14.65;8.30;;;;;18.70;97119.00;;;;10185185;23;20223;-76
2022/10/29 10:30:14;;;;;;;14.90;8.48;;;;;19.00;97115.00;;;;10184413;23;20194;-75
2022/10/29 10:34:21;;;;;;;12.10;8.05;;;;;19.20;97111.00;;;;10185232;23;20190;-76
2022/10/29 10:38:55;;;;;;;12.57;6.93;;;;;19.40;97108.00;;;;10183791;23;20202;-76
2022/10/29 10:42:58;;;;;;;15.77;8.00;;;;;19.50;97104.00;;;;10165372;23;20661;-76
2022/10/29 10:47:08;;;;;;;21.80;7.47;;;;;19.60;97101.00;;;;10184217;23;20202;-75
2022/10/29 10:51:26;;;;;;;16.73;6.68;;;;;19.50;97097.00;;;;10183906;23;20194;-76
2022/10/29 10:55:48;;;;;;;12.93;6.82;;;;;19.60;97095.00;;;;10185445;23;20198;-76
2022/10/29 11:00:00;;;;;;;15.98;6.57;;;;;19.90;97086.00;;;;10167594;23;20284;-76
2022/10/29 11:04:13;;;;;;;16.15;7.85;;;;;20.20;97084.00;;;;10157140;23;20194;-76
2022/10/29 11:08:43;;;;;;;10.60;6.60;;;;;20.60;97079.00;;;;10185027;23;20280;-76
2022/10/29 11:12:51;;;;;;;12.02;5.50;;;;;20.90;97077.00;;;;10183216;23;20713;-76
2022/10/29 11:17:21;;;;;;;13.65;5.18;;;;;21.00;97072.00;;;;10184130;23;20213;-76
2022/10/29 11:21:30;;;;;;;13.35;5.50;;;;;21.10;97072.00;;;;10183579;23;20194;-76
2022/10/29 11:26:06;;;;;;;9.07;4.93;;;;;21.10;97074.00;;;;10184118;23;20198;-77
2022/10/29 11:30:37;;;;;;;17.20;5.45;;;;;21.40;97072.00;;;;10184226;23;20189;-76
2022/10/29 11:35:16;;;;;;;13.93;5.45;;;;;21.80;97068.00;;;;10184545;23;20194;-75
2022/10/29 11:39:23;;;;;;;16.40;5.95;;;;;22.10;97063.00;;;;10180595;23;20198;-76
2022/10/29 11:43:56;;;;;;;10.10;5.22;;;;;22.30;97060.00;;;;10183868;23;20562;-76
2022/10/29 11:48:12;;;;;;;13.18;4.82;;;;;22.30;97061.00;;;;10184841;23;20207;-76
2022/10/29 11:52:42;;;;;;;6.95;4.70;;;;;22.20;97042.00;;;;10139199;23;20219;-73
2022/10/29 11:57:12;;;;;;;9.15;5.05;;;;;22.10;97056.00;;;;10183145;23;20197;-74
2022/10/29 12:01:53;;;;;;;14.85;5.90;;;;;22.20;97044.00;;;;10134555;23;20282;-74
2022/10/29 12:06:32;;;;;;;16.02;5.38;;;;;22.20;97046.00;;;;10134818;23;20498;-74
2022/10/29 12:11:07;;;;;;;8.52;5.28;;;;;22.30;97036.00;;;;10136262;23;20190;-74
2022/10/29 12:15:21;;;;;;;12.27;5.00;;;;;22.40;97036.00;;;;10134693;23;20214;-74
2022/10/29 12:19:41;;;;;;;10.13;5.47;;;;;22.40;97028.00;;;;10133490;23;20538;-75
2022/10/29 12:24:18;;;;;;;8.85;4.70;;;;;22.30;97019.00;;;;10140522;23;20202;-75
2022/10/29 12:28:52;;;;;;;11.60;5.43;;;;;22.30;97024.00;;;;10134390;23;20191;-75
2022/10/29 12:33:20;;;;;;;7.60;4.65;;;;;22.20;97022.00;;;;10139104;23;20222;-77
2022/10/29 12:37:50;;;;;;;13.70;4.93;;;;;22.20;97014.00;;;;10138230;23;20221;-76
2022/10/29 12:42:29;;;;;;;12.82;4.63;;;;;22.20;97017.00;;;;10135059;23;20626;-76
2022/10/29 12:46:39;;;;;;;9.05;4.55;;;;;22.30;97009.00;;;;10136753;23;20211;-76
2022/10/29 12:51:15;;;;;;;7.85;4.60;;;;;22.30;97011.00;;;;10183101;23;20557;-77
2022/10/29 12:55:19;;;;;;;17.15;5.05;;;;;22.40;97002.00;;;;10139495;23;20224;-77
2022/10/29 12:59:54;;;;;;;14.85;4.93;;;;;22.40;96997.00;;;;10138283;23;20322;-77
2022/10/29 13:04:02;;;;;;;7.22;4.75;;;;;22.40;96986.00;;;;10186131;23;20695;-77
2022/10/29 13:08:36;;;;;;;10.90;5.15;;;;;22.30;96978.00;;;;10185652;23;20621;-77
2022/10/29 13:13:00;;;;;;;12.40;4.90;;;;;22.30;96984.00;;;;10137718;23;20223;-75
2022/10/29 13:17:33;;;;;;;17.25;5.20;;;;;22.30;96982.00;;;;10186842;23;20211;-76
2022/10/29 13:22:29;;;;;;;12.50;5.28;;;;;22.30;96985.00;;;;10184382;23;20205;-76
2022/10/29 13:27:21;;;;;;;12.20;5.47;;;;;22.30;96983.00;;;;10186047;23;20190;-77
2022/10/29 13:31:47;;;;;;;10.77;5.07;;;;;22.20;96980.00;;;;10186586;23;20201;-76
2022/10/29 13:36:36;;;;;;;9.63;4.95;;;;;22.20;96966.00;;;;10185668;23;20656;-77
2022/10/29 13:41:18;;;;;;;12.90;5.53;;;;;22.10;96971.00;;;;10187007;23;20547;-77
2022/10/29 13:45:50;;;;;;;10.23;4.70;;;;;22.10;96973.00;;;;10186245;23;20187;-76
2022/10/29 13:49:54;;;;;;;9.88;5.60;;;;;22.10;96969.00;;;;10187732;23;20194;-77
2022/10/29 13:54:03;;;;;;;11.32;5.07;;;;;22.10;96962.00;;;;10186027;23;20197;-75
2022/10/29 13:58:33;;;;;;;13.48;5.00;;;;;22.10;96958.00;;;;10186611;23;20205;-76
2022/10/29 14:03:16;;;;;;;10.35;4.88;;;;;22.00;96965.00;;;;10185922;23;20281;-78
2022/10/29 14:07:47;;;;;;;9.43;5.40;;;;;22.00;96950.00;;;;10186222;23;20198;-77
2022/10/29 14:12:21;;;;;;;11.00;4.93;;;;;21.90;96959.00;;;;10186489;23;20244;-76
2022/10/29 14:17:01;;;;;;;13.13;4.95;;;;;21.80;96953.00;;;;10186791;23;20194;-77
2022/10/29 14:21:07;;;;;;;13.18;5.00;;;;;21.70;96956.00;;;;10185390;23;20201;-77
2022/10/29 14:25:40;;;;;;;15.55;5.47;;;;;21.60;96953.00;;;;10186998;23;20218;-77
2022/10/29 14:30:19;;;;;;;9.45;5.10;;;;;21.50;96950.00;;;;10186026;23;20202;-77
2022/10/29 14:34:53;;;;;;;13.27;5.90;;;;;21.40;96951.00;;;;10184186;23;20525;-76
2022/10/29 14:39:34;;;;;;;11.15;5.55;;;;;21.30;96953.00;;;;10184823;23;20202;-90
2022/10/29 14:44:16;;;;;;;13.75;5.20;;;;;21.10;96956.00;;;;10136259;23;20207;-90
2022/10/29 14:48:59;;;;;;;7.45;5.03;;;;;21.00;96956.00;;;;10142433;23;20245;-87
2022/10/29 14:53:34;;;;;;;10.70;6.00;;;;;20.80;96964.00;;;;10136261;23;20269;-86
2022/10/29 14:58:16;;;;;;;13.15;6.32;;;;;20.70;96950.00;;;;10184650;23;20393;-86
2022/10/29 15:02:44;;;;;;;13.70;6.15;;;;;20.60;96968.00;;;;10183028;23;20222;-85
2022/10/29 15:06:48;;;;;;;40.75;20.88;;;;;20.40;96951.00;;;;10177486;23;20218;-78
2022/10/29 15:11:28;;;;;;;35.33;19.63;;;;;20.30;96960.00;;;;10183862;23;20201;-83
2022/10/29 15:16:08;;;;;;;13.13;6.68;;;;;20.10;96957.00;;;;10183712;23;20473;-82
2022/10/29 15:20:21;;;;;;;14.88;5.82;;;;;20.00;96959.00;;;;10185279;23;20197;-82
2022/10/29 15:24:46;;;;;;;12.90;5.97;;;;;20.00;96953.00;;;;10180489;23;20194;-82
2022/10/29 15:29:23;;;;;;;14.20;6.28;;;;;19.80;96966.00;;;;10184728;23;20607;-83
2022/10/29 15:34:00;;;;;;;16.33;7.40;;;;;19.70;96949.00;;;;10183951;23;20198;-84
2022/10/29 15:38:49;;;;;;;14.27;6.63;;;;;19.50;96964.00;;;;10184733;23;20201;-82
2022/10/29 15:42:54;;;;;;;10.13;5.82;;;;;19.30;96947.00;;;;10131881;23;20249;-83
2022/10/29 15:47:32;;;;;;;14.52;6.65;;;;;19.10;96954.00;;;;10184252;23;20198;-83
2022/10/29 15:52:06;;;;;;;15.18;6.53;;;;;18.80;96944.00;;;;10183565;23;20261;-83
2022/10/29 15:56:13;;;;;;;15.80;7.45;;;;;18.60;96956.00;;;;10184865;23;20202;-82
2022/10/29 16:00:16;;;;;;;12.63;6.00;;;;;18.40;96946.00;;;;10184061;23;20220;-81
2022/10/29 16:04:50;;;;;;;18.38;7.65;;;;;18.20;96951.00;;;;10184465;23;20201;-83
2022/10/29 16:09:27;;;;;;;14.65;6.38;;;;;18.00;96943.00;;;;10182720;23;20198;-82
2022/10/29 16:14:06;;;;;;;119.72;68.30;;;;;17.80;96947.00;;;;10184683;23;20190;-88
2022/10/29 16:18:09;;;;;;;88.80;51.38;;;;;17.80;96938.00;;;;10183664;23;20194;-88
2022/10/29 16:22:30;;;;;;;573.75;275.02;;;;;17.70;96936.00;;;;10184652;23;20236;-80
2022/10/29 16:26:33;;;;;;;601.47;272.27;;;;;17.60;96938.00;;;;10183520;23;20186;-87
2022/10/29 16:31:17;;;;;;;217.45;84.70;;;;;17.50;96931.00;;;;10185707;23;20202;-88
2022/10/29 16:35:21;;;;;;;185.70;70.70;;;;;17.40;96940.00;;;;10186788;23;20639;-88
2022/10/29 16:39:24;;;;;;;312.10;178.02;;;;;17.40;96939.00;;;;10186815;23;20193;-87
2022/10/29 16:44:01;;;;;;;22.67;14.10;;;;;17.40;96946.00;;;;10186620;23;20198;-87
2022/10/29 16:48:06;;;;;;;14.27;8.95;;;;;17.30;96944.00;;;;10186795;23;20201;-87
2022/10/29 16:52:40;;;;;;;15.50;6.82;;;;;17.20;96946.00;;;;10187601;23;20205;-87
2022/10/29 16:57:17;;;;;;;11.60;6.00;;;;;17.00;96936.00;;;;10186472;23;20226;-84
2022/10/29 17:01:53;;;;;;;15.90;6.90;;;;;16.90;96944.00;;;;10187086;23;20201;-83
2022/10/29 17:06:32;;;;;;;13.82;6.25;;;;;16.60;96942.00;;;;10186838;23;20249;-83
2022/10/29 17:10:35;;;;;;;15.80;6.50;;;;;16.50;96944.00;;;;10186023;23;20194;-84
2022/10/29 17:14:38;;;;;;;14.27;6.70;;;;;16.50;96945.00;;;;10186604;23;20205;-83
2022/10/29 17:19:16;;;;;;;19.27;8.15;;;;;16.40;96945.00;;;;10186355;23;20225;-83
2022/10/29 17:28:52;;;;;;;21.92;8.27;;;;;16.20;96959.00;;;;10185817;23;20557;-83
2022/10/29 17:33:26;;;;;;;16.80;7.45;;;;;16.10;96949.00;;;;10186212;23;20597;-82
2022/10/29 17:38:03;;;;;;;21.45;9.85;;;;;16.00;96954.00;;;;10136251;23;20325;-85
2022/10/29 17:42:40;;;;;;;15.10;7.78;;;;;15.90;96953.00;;;;10135842;23;20330;-85
2022/10/29 17:47:18;;;;;;;17.55;7.30;;;;;15.70;96962.00;;;;10137170;23;20226;-84
2022/10/29 17:51:52;;;;;;;28.55;11.40;;;;;15.60;96958.00;;;;10136665;23;20191;-85
2022/10/29 17:56:31;;;;;;;21.33;8.15;;;;;15.50;96960.00;;;;10134882;23;20266;-84
2022/10/29 18:01:05;;;;;;;21.67;8.45;;;;;15.40;96957.00;;;;10135751;23;20246;-84
2022/10/29 18:05:42;;;;;;;33.47;11.75;;;;;15.30;96965.00;;;;10138703;23;20622;-85
2022/10/29 18:10:20;;;;;;;19.55;8.00;;;;;15.30;96964.00;;;;10143138;23;20218;-86
2022/10/29 18:14:54;;;;;;;22.30;9.00;;;;;15.20;96953.00;;;;10184263;23;20605;-84
2022/10/29 18:19:31;;;;;;;21.38;8.15;;;;;15.20;96953.00;;;;10135742;23;20241;-86
2022/10/29 18:28:52;;;;;;;17.65;8.70;;;;;15.00;96949.00;;;;10185170;23;20249;-87
2022/10/29 18:33:26;;;;;;;17.73;9.68;;;;;14.90;96947.00;;;;10166595;23;20198;-85
2022/10/29 18:37:29;;;;;;;18.65;8.13;;;;;14.90;96948.00;;;;10184221;23;20198;-85
2022/10/29 18:42:05;;;;;;;25.33;9.55;;;;;14.80;96939.00;;;;10184686;23;20209;-86
2022/10/29 18:46:11;;;;;;;23.85;12.20;;;;;14.80;96939.00;;;;10183685;23;20190;-85
2022/10/29 18:50:14;;;;;;;22.95;10.02;;;;;14.70;96936.00;;;;10184572;23;20190;-85
2022/10/29 18:54:51;;;;;;;23.40;9.75;;;;;14.70;96922.00;;;;10182680;23;20260;-85
2022/10/29 18:58:55;;;;;;;23.45;10.60;;;;;14.60;96938.00;;;;10183830;23;20588;-84
2022/10/29 19:03:28;;;;;;;20.85;9.65;;;;;14.60;96928.00;;;;10182912;23;20205;-84
2022/10/29 19:07:33;;;;;;;20.10;9.60;;;;;14.70;96927.00;;;;10183966;23;20197;-84
2022/10/29 19:11:36;;;;;;;27.60;10.05;;;;;14.70;96926.00;;;;10183569;23;20205;-85
2022/10/29 19:16:13;;;;;;;18.23;9.77;;;;;14.70;96922.00;;;;10184445;23;20198;-85
2022/10/29 19:20:16;;;;;;;19.85;10.02;;;;;14.70;96931.00;;;;10184483;23;20194;-85
2022/10/29 19:24:21;;;;;;;20.88;10.80;;;;;14.70;96934.00;;;;10181957;23;20213;-85
2022/10/29 19:28:55;;;;;;;25.75;9.57;;;;;14.70;96923.00;;;;10184166;23;20198;-82
2022/10/29 19:32:58;;;;;;;21.02;10.13;;;;;14.60;96938.00;;;;10183036;23;20273;-85
2022/10/29 19:37:28;;;;;;;18.90;10.02;;;;;14.50;96926.00;;;;10134707;23;20268;-85
2022/10/29 19:42:07;;;;;;;25.95;9.93;;;;;14.50;96935.00;;;;10184363;23;20588;-85
2022/10/29 19:46:42;;;;;;;28.88;11.50;;;;;14.50;96936.00;;;;10138024;23;20239;-85
2022/10/29 19:51:15;;;;;;;25.55;10.75;;;;;14.40;96938.00;;;;10134651;23;20202;-85
2022/10/29 19:55:52;;;;;;;21.23;10.30;;;;;14.20;96937.00;;;;10140140;23;20213;-85
2022/10/29 19:59:57;;;;;;;17.52;9.13;;;;;14.10;96935.00;;;;10141203;23;20217;-85
2022/10/29 20:04:30;;;;;;;23.20;10.15;;;;;14.00;96927.00;;;;10181292;23;20246;-79
2022/10/29 20:08:34;;;;;;;24.65;10.32;;;;;13.90;96929.00;;;;10184062;23;20190;-85
2022/10/29 20:13:11;;;;;;;24.27;10.30;;;;;13.80;96933.00;;;;10182953;23;20194;-85
2022/10/29 20:17:16;;;;;;;22.92;10.23;;;;;13.90;96932.00;;;;10133955;23;20255;-85
2022/10/29 20:21:49;;;;;;;22.77;10.35;;;;;13.90;96930.00;;;;10180838;23;20197;-86
2022/10/29 20:30:50;;;;;;;19.48;10.70;;;;;14.10;96928.00;;;;10183718;23;20259;-85
2022/10/29 20:34:54;;;;;;;24.30;12.32;;;;;14.10;96936.00;;;;10184248;23;20202;-84
2022/10/29 20:38:58;;;;;;;30.10;11.55;;;;;14.30;96931.00;;;;10183865;23;20194;-85
2022/10/29 20:43:01;;;;;;;28.50;11.15;;;;;14.30;96937.00;;;;10183388;23;20633;-84
2022/10/29 20:47:38;;;;;;;27.65;11.55;;;;;14.40;96933.00;;;;10183569;23;20675;-84
2022/10/29 20:51:42;;;;;;;21.20;10.95;;;;;14.50;96929.00;;;;10182977;23;20505;-84
2022/10/29 20:55:50;;;;;;;19.52;9.93;;;;;14.60;96930.00;;;;10184792;23;20545;-84
2022/10/29 21:00:21;;;;;;;24.45;9.75;;;;;14.60;96930.00;;;;10184175;23;20193;-85
2022/10/29 21:04:24;;;;;;;21.88;10.77;;;;;14.60;96943.00;;;;10184459;23;20604;-85
2022/10/29 21:09:02;;;;;;;24.02;9.98;;;;;14.70;96936.00;;;;10183174;23;20493;-84
2022/10/29 21:13:05;;;;;;;21.08;9.48;;;;;14.70;96938.00;;;;10184378;23;20194;-84
2022/10/29 21:17:08;;;;;;;20.85;10.38;;;;;14.80;96941.00;;;;10184486;23;20504;-84
2022/10/29 21:21:12;;;;;;;20.52;9.70;;;;;14.80;96939.00;;;;10187443;23;20205;-84
2022/10/29 21:25:16;;;;;;;22.25;11.00;;;;;14.80;96930.00;;;;10186151;23;20201;-85
2022/10/29 21:29:54;;;;;;;22.73;8.90;;;;;14.80;96926.00;;;;10187707;23;20217;-84
2022/10/29 21:33:57;;;;;;;20.63;9.93;;;;;14.70;96926.00;;;;10186831;23;20205;-84
2022/10/29 21:38:00;;;;;;;22.45;9.40;;;;;14.60;96917.00;;;;10186520;23;20190;-84